createdAt,value
2023-03-29T00:09:45.265Z,8.10
2023-03-29T00:40:10.145Z,7.80
2023-03-29T00:55:35.831Z,8.10
2023-03-29T01:26:04.467Z,14.50
2023-03-29T01:41:07.316Z,13.50
2023-03-29T01:56:22.432Z,9.70
2023-03-29T02:11:28.766Z,6.80
2023-03-29T02:26:31.913Z,6.70
2023-03-29T02:41:37.533Z,8.40
2023-03-29T02:56:57.622Z,9.00
2023-03-29T03:12:00.527Z,6.40
2023-03-29T03:27:03.169Z,6.70
2023-03-29T03:42:08.412Z,7.10
2023-03-29T03:57:25.980Z,6.60
2023-03-29T04:12:28.926Z,6.10
2023-03-29T04:27:32.195Z,7.40
2023-03-29T04:42:51.071Z,11.10
2023-03-29T04:57:54.934Z,11.00
2023-03-29T05:13:12.317Z,10.20
2023-03-29T05:28:16.160Z,6.60
2023-03-29T05:43:19.174Z,8.10
2023-03-29T05:58:22.634Z,6.00
2023-03-29T06:13:26.824Z,7.00
2023-03-29T06:28:30.265Z,7.60
2023-03-29T06:43:34.127Z,7.80
2023-03-29T06:58:51.356Z,7.70
2023-03-29T07:13:55.173Z,7.70
2023-03-29T07:28:58.424Z,5.80
2023-03-29T07:44:08.509Z,6.20
2023-03-29T08:14:28.387Z,4.60
2023-03-29T08:29:31.235Z,5.40
2023-03-29T08:44:49.858Z,5.90
2023-03-29T09:00:17.393Z,5.80
2023-03-29T09:15:54.132Z,5.30
2023-03-29T09:31:20.953Z,5.00
2023-03-29T09:46:38.274Z,2.20
2023-03-29T10:02:11.464Z,2.70
2023-03-29T10:17:28.762Z,2.30
2023-03-29T10:32:35.753Z,2.90
2023-03-29T10:47:44.166Z,3.00
2023-03-29T11:02:58.601Z,3.70
2023-03-29T11:18:19.235Z,3.70
2023-03-29T11:34:13.863Z,2.80
2023-03-29T11:49:36.536Z,3.20
2023-03-29T12:04:51.414Z,3.40
2023-03-29T12:20:31.030Z,3.40
2023-03-29T12:35:58.560Z,2.60
2023-03-29T12:51:12.497Z,3.20
2023-03-29T13:06:46.082Z,2.30
2023-03-29T13:22:30.652Z,2.30
2023-03-29T13:37:46.758Z,2.60
2023-03-29T13:53:10.877Z,3.10
2023-03-29T14:08:26.548Z,3.70
2023-03-29T14:23:33.338Z,3.60
2023-03-29T14:38:37.503Z,3.40
2023-03-29T14:53:42.690Z,4.20
2023-03-29T15:09:01.456Z,3.70
2023-03-29T15:24:33.321Z,4.20
2023-03-29T15:39:43.891Z,4.30
2023-03-29T15:54:46.805Z,2.70
2023-03-29T16:09:50.415Z,2.90
2023-03-29T16:24:53.273Z,3.40
2023-03-29T16:39:56.649Z,4.20
2023-03-29T16:54:59.725Z,2.70
2023-03-29T17:10:05.414Z,2.90
2023-03-29T17:25:09.357Z,2.90
2023-03-29T17:40:26.861Z,4.20
2023-03-29T17:55:29.804Z,6.00
2023-03-29T18:10:32.924Z,8.90
2023-03-29T18:25:35.623Z,10.60
2023-03-29T18:40:38.754Z,15.00
2023-03-29T18:55:42.839Z,24.60
2023-03-29T19:10:45.906Z,10.40
2023-03-29T19:25:57.815Z,6.20
2023-03-29T19:41:15.524Z,10.00
2023-03-29T20:11:23.297Z,14.00
2023-03-29T20:26:27.457Z,9.70
2023-03-29T20:41:31.232Z,9.00
2023-03-29T20:56:39.472Z,10.90
2023-03-29T21:11:43.098Z,8.10
2023-03-29T21:26:45.946Z,8.20
2023-03-29T21:41:48.508Z,7.00
2023-03-29T21:56:51.171Z,7.40
2023-03-29T22:11:53.750Z,6.70
2023-03-29T22:26:56.192Z,8.20
2023-03-29T22:41:58.818Z,9.70
2023-03-29T22:57:01.428Z,8.40
2023-03-29T23:12:04.228Z,7.20
2023-03-29T23:27:07.175Z,6.70
2023-03-29T23:42:10.260Z,7.00
2023-03-29T23:57:13.175Z,6.10
